Saint Ann, Missouri
Current Conditions -  °F | °C
As of 12:51 PM on Thursday 30 Oct 2014 (Local Time) from KSTL Reporting Station
Broken Clouds Broken Clouds  
Wind Chill: 58°   Ceiling: 25000
Heat Index: 58°   Visibility: 10mi
Dew Point: 36°   Wind: 9mph
Humidity: 44%   Direction: 170°S
Pressure: 30.08"   Gusts: NA
Location:  38.73°N, 90.38°W
Report Text: KSTL 301751Z 17008KT 10SM SCT100 BKN250 14/02 A3008 RMK AO2 SLP186 60000 T01440022 10144 20050 58022 $
Loading
Personal Weather Stations






























Interactive Weather Map
Tropical Storm Tracking
New forecast layout! Learn more

10-Day Weather Forecast

Advertisements
Track Severe Weather on mobile